Terminal Aerodrome Forecast
Issued by NWS

Home | Current Version | Previous Version | Graphics & Text | Print | Product List | Glossary On
Versions: 1 2 3 4 5 6 7 8 9 10 11 12 13 14 15
170
FTUS43 KGRB 281720
TAFMTW
TAF
KMTW 281720Z 2818/2918 08008G14KT P6SM VCSH OVC060
     FM290000 04008KT P6SM VCSH OVC060
     FM291000 02006KT P6SM BKN080=

USA.gov is the U.S. government's official web portal to all federal, state and local government web resources and services.